createdAt,value
2023-04-19T00:00:48.382Z,3.38
2023-04-19T00:03:15.702Z,2.95
2023-04-19T00:05:42.774Z,2.80
2023-04-19T00:08:09.565Z,2.22
2023-04-19T00:10:36.653Z,3.60
2023-04-19T00:13:03.412Z,2.90
2023-04-19T00:15:30.780Z,2.70
2023-04-19T00:17:57.670Z,3.05
2023-04-19T00:20:24.489Z,3.03
2023-04-19T00:22:51.110Z,2.67
2023-04-19T00:25:17.764Z,2.38
2023-04-19T00:27:44.423Z,2.55
2023-04-19T00:30:11.780Z,2.60
2023-04-19T00:32:38.468Z,3.15
2023-04-19T00:35:05.679Z,3.10
2023-04-19T00:37:32.449Z,2.83
2023-04-19T00:39:59.118Z,3.13
2023-04-19T00:42:26.356Z,3.00
2023-04-19T00:44:53.094Z,3.47
2023-04-19T00:47:20.532Z,2.95
2023-04-19T00:49:48.120Z,3.10
2023-04-19T00:52:16.310Z,2.97
2023-04-19T00:54:44.233Z,2.58
2023-04-19T00:57:13.335Z,2.50
2023-04-19T00:59:40.430Z,2.80
2023-04-19T01:02:07.587Z,3.15
2023-04-19T01:04:34.413Z,2.97
2023-04-19T01:07:02.225Z,2.92
2023-04-19T01:09:28.954Z,2.92
2023-04-19T01:11:57.551Z,3.08
2023-04-19T01:14:24.228Z,2.47
2023-04-19T01:16:51.346Z,3.22
2023-04-19T01:19:18.434Z,3.10
2023-04-19T01:21:46.446Z,2.78
2023-04-19T01:24:13.715Z,2.50
2023-04-19T01:26:41.078Z,2.88
2023-04-19T01:29:07.853Z,3.30
2023-04-19T01:31:34.709Z,2.88
2023-04-19T01:34:03.867Z,3.50
2023-04-19T01:36:31.118Z,3.78
2023-04-19T01:38:57.834Z,4.03
2023-04-19T01:41:27.413Z,3.65
2023-04-19T01:44:59.540Z,3.63
2023-04-19T01:47:26.940Z,2.72
2023-04-19T01:49:53.705Z,3.38
2023-04-19T01:52:20.400Z,3.05
2023-04-19T01:54:48.491Z,3.60
2023-04-19T01:57:16.698Z,3.70
2023-04-19T01:59:43.489Z,3.65
2023-04-19T02:02:10.335Z,2.92
2023-04-19T02:04:38.434Z,3.63
2023-04-19T02:07:06.031Z,3.97
2023-04-19T02:09:36.603Z,4.18
2023-04-19T02:12:04.275Z,4.85
2023-04-19T02:14:32.032Z,4.28
2023-04-19T02:16:58.764Z,5.35
2023-04-19T02:19:25.457Z,4.50
2023-04-19T02:21:53.707Z,5.35
2023-04-19T02:24:20.520Z,5.22
2023-04-19T02:26:47.166Z,5.18
2023-04-19T02:29:16.886Z,4.88
2023-04-19T02:31:45.293Z,5.00
2023-04-19T02:34:12.628Z,5.07
2023-04-19T02:36:39.482Z,4.53
2023-04-19T02:39:06.138Z,4.50
2023-04-19T02:41:32.812Z,5.22
2023-04-19T02:44:01.726Z,4.97
2023-04-19T02:46:28.602Z,5.25
2023-04-19T02:48:55.373Z,5.30
2023-04-19T02:51:22.496Z,5.43
2023-04-19T02:53:49.502Z,4.50
2023-04-19T02:56:16.740Z,4.65
2023-04-19T02:58:43.403Z,4.63
2023-04-19T03:01:10.905Z,3.92
2023-04-19T03:03:37.864Z,4.38
2023-04-19T03:06:05.210Z,4.82
2023-04-19T03:08:33.044Z,4.68
2023-04-19T03:10:59.836Z,4.95
2023-04-19T03:13:26.506Z,6.40
2023-04-19T03:15:53.257Z,6.70
2023-04-19T03:18:22.765Z,5.78
2023-04-19T03:20:51.104Z,6.53
2023-04-19T03:23:17.804Z,6.28
2023-04-19T03:25:46.404Z,6.20
2023-04-19T03:28:23.397Z,6.45
2023-04-19T03:31:10.441Z,6.28
2023-04-19T03:33:37.443Z,5.90
2023-04-19T03:36:04.763Z,6.30
2023-04-19T03:38:31.592Z,7.03
2023-04-19T03:40:59.598Z,6.95
2023-04-19T03:43:29.990Z,5.85
2023-04-19T03:45:56.842Z,6.95
2023-04-19T03:48:23.741Z,6.53
2023-04-19T03:50:50.419Z,6.80
2023-04-19T03:53:19.370Z,6.78
2023-04-19T03:55:46.005Z,6.78
2023-04-19T03:58:12.890Z,6.65
2023-04-19T04:00:48.421Z,6.38
2023-04-19T04:03:15.682Z,6.13
2023-04-19T04:05:42.598Z,6.70
2023-04-19T04:08:09.696Z,6.03
2023-04-19T04:10:36.749Z,7.53
2023-04-19T04:13:04.089Z,6.38
2023-04-19T04:15:39.774Z,6.93
2023-04-19T04:18:09.228Z,6.95
2023-04-19T04:20:36.373Z,6.82
2023-04-19T04:23:07.621Z,7.55
2023-04-19T04:25:37.609Z,6.95
2023-04-19T04:28:07.500Z,6.88
2023-04-19T04:30:35.046Z,6.72
2023-04-19T04:33:03.238Z,7.65
2023-04-19T04:35:30.693Z,7.05
2023-04-19T04:38:17.490Z,7.53
2023-04-19T04:40:53.594Z,7.32
2023-04-19T04:43:25.736Z,6.35
2023-04-19T04:45:55.660Z,6.47
2023-04-19T04:48:23.537Z,6.70
2023-04-19T04:50:50.427Z,6.65
2023-04-19T04:53:17.739Z,5.88
2023-04-19T04:55:45.868Z,6.88
2023-04-19T04:58:15.199Z,6.25
2023-04-19T05:01:04.249Z,6.47
2023-04-19T05:03:36.249Z,6.97
2023-04-19T05:06:06.220Z,5.80
2023-04-19T05:08:33.016Z,6.28
2023-04-19T05:11:12.890Z,6.53
2023-04-19T05:13:39.690Z,5.35
2023-04-19T05:16:06.835Z,6.65
2023-04-19T05:18:34.666Z,5.88
2023-04-19T05:21:01.551Z,6.28
2023-04-19T05:23:31.824Z,6.28
2023-04-19T05:25:58.477Z,6.10
2023-04-19T05:28:27.553Z,6.28
2023-04-19T05:31:06.479Z,6.63
2023-04-19T05:33:40.230Z,6.55
2023-04-19T05:36:07.961Z,6.75
2023-04-19T05:38:34.653Z,6.38
2023-04-19T05:41:03.559Z,6.53
2023-04-19T05:43:30.392Z,6.38
2023-04-19T05:45:57.960Z,6.68
2023-04-19T05:48:25.717Z,5.93
2023-04-19T05:51:30.558Z,5.70
2023-04-19T05:54:03.547Z,5.90
2023-04-19T05:56:31.081Z,6.05
2023-04-19T06:02:58.310Z,5.60
2023-04-19T06:05:25.729Z,5.00
2023-04-19T06:10:31.268Z,5.03
2023-04-19T06:13:04.760Z,3.72
2023-04-19T06:16:41.339Z,4.50
2023-04-19T06:19:08.138Z,3.25
2023-04-19T06:21:35.122Z,3.28
2023-04-19T06:24:02.031Z,3.33
2023-04-19T06:26:28.714Z,3.00
2023-04-19T06:28:55.614Z,3.70
2023-04-19T06:31:22.541Z,4.25
2023-04-19T06:33:49.692Z,3.45
2023-04-19T06:36:16.719Z,3.20
2023-04-19T06:38:44.651Z,2.78
2023-04-19T06:41:11.465Z,2.88
2023-04-19T06:43:40.995Z,2.72
2023-04-19T06:46:08.759Z,3.47
2023-04-19T06:48:35.885Z,3.05
2023-04-19T06:51:03.058Z,2.78
2023-04-19T06:53:29.829Z,3.13
2023-04-19T06:55:59.915Z,3.58
2023-04-19T06:58:27.566Z,2.35
2023-04-19T07:00:54.758Z,2.72
2023-04-19T07:03:21.980Z,2.90
2023-04-19T07:05:49.220Z,3.17
2023-04-19T07:08:16.238Z,2.60
2023-04-19T07:10:43.983Z,2.95
2023-04-19T07:13:12.090Z,2.88
2023-04-19T07:15:39.089Z,3.08
2023-04-19T07:18:06.588Z,2.58
2023-04-19T07:20:34.106Z,2.47
2023-04-19T07:23:01.097Z,2.70
2023-04-19T07:25:28.154Z,3.22
2023-04-19T07:28:16.063Z,2.75
2023-04-19T07:30:47.572Z,2.63
2023-04-19T07:33:14.613Z,2.42
2023-04-19T07:35:41.693Z,3.45
2023-04-19T07:38:09.272Z,2.60
2023-04-19T07:40:36.415Z,2.53
2023-04-19T07:43:03.487Z,2.15
2023-04-19T07:45:31.427Z,1.90
2023-04-19T07:47:59.362Z,2.35
2023-04-19T07:50:27.379Z,2.00
2023-04-19T07:57:20.186Z,2.45
2023-04-19T08:02:14.043Z,2.75
2023-04-19T08:04:41.314Z,2.28
2023-04-19T08:07:09.485Z,2.20
2023-04-19T08:09:37.949Z,2.55
2023-04-19T08:12:04.747Z,2.20
2023-04-19T08:14:40.493Z,2.20
2023-04-19T08:20:36.948Z,2.55
2023-04-19T08:23:18.150Z,2.40
2023-04-19T08:28:14.403Z,2.08
2023-04-19T08:30:41.390Z,2.60
2023-04-19T08:33:08.350Z,2.42
2023-04-19T08:35:36.205Z,2.47
2023-04-19T08:38:04.615Z,2.58
2023-04-19T08:40:31.723Z,2.45
2023-04-19T08:42:58.851Z,3.10
2023-04-19T08:45:29.008Z,2.53
2023-04-19T08:48:01.540Z,2.65
2023-04-19T08:53:09.084Z,2.42
2023-04-19T08:56:06.787Z,2.75
2023-04-19T08:58:56.875Z,3.17
2023-04-19T09:01:33.769Z,2.35
2023-04-19T09:04:26.397Z,2.60
2023-04-19T09:06:52.516Z,3.03
2023-04-19T09:11:51.599Z,2.97
2023-04-19T09:14:20.272Z,2.85
2023-04-19T09:16:47.304Z,3.25
2023-04-19T09:19:23.008Z,3.13
2023-04-19T09:21:53.054Z,3.20
2023-04-19T09:24:19.845Z,2.85
2023-04-19T09:26:57.882Z,3.38
2023-04-19T09:29:25.196Z,3.15
2023-04-19T09:31:59.396Z,4.32
2023-04-19T09:34:28.234Z,3.30
2023-04-19T09:37:08.466Z,3.03
2023-04-19T09:39:40.004Z,3.08
2023-04-19T09:42:07.177Z,3.47
2023-04-19T09:45:02.214Z,3.25
2023-04-19T09:47:26.311Z,3.53
2023-04-19T09:50:21.037Z,3.50
2023-04-19T09:52:50.104Z,4.00
2023-04-19T09:57:48.508Z,3.30
2023-04-19T10:00:15.897Z,2.97
2023-04-19T10:02:43.569Z,3.28
2023-04-19T10:05:20.708Z,2.53
2023-04-19T10:07:50.037Z,2.72
2023-04-19T10:10:20.918Z,2.83
2023-04-19T10:15:24.307Z,2.65
2023-04-19T10:17:51.504Z,2.80
2023-04-19T10:21:02.042Z,2.40
2023-04-19T10:23:29.791Z,2.20
2023-04-19T10:26:00.845Z,2.22
2023-04-19T10:28:31.121Z,1.95
2023-04-19T10:31:02.554Z,1.70
2023-04-19T10:33:36.025Z,1.67
2023-04-19T10:36:03.063Z,2.35
2023-04-19T10:38:44.642Z,2.15
2023-04-19T10:41:18.625Z,1.30
2023-04-19T10:43:48.032Z,1.80
2023-04-19T10:46:16.646Z,2.00
2023-04-19T10:49:00.135Z,1.50
2023-04-19T10:51:28.979Z,1.73
2023-04-19T10:53:57.550Z,1.05
2023-04-19T10:56:33.518Z,1.38
2023-04-19T10:59:07.645Z,1.38
2023-04-19T11:01:37.389Z,1.33
2023-04-19T11:04:04.813Z,1.20
2023-04-19T11:06:32.658Z,1.40
2023-04-19T11:09:00.875Z,1.27
2023-04-19T11:11:27.957Z,1.10
2023-04-19T11:14:00.579Z,1.02
2023-04-19T11:16:41.989Z,1.08
2023-04-19T11:19:19.788Z,0.80
2023-04-19T11:21:47.653Z,0.68
2023-04-19T11:24:16.403Z,1.05
2023-04-19T11:26:46.550Z,0.77
2023-04-19T11:29:13.505Z,0.80
2023-04-19T11:31:40.787Z,0.57
2023-04-19T11:34:07.549Z,0.60
2023-04-19T11:36:36.828Z,0.80
2023-04-19T11:39:06.826Z,0.68
2023-04-19T11:41:40.486Z,0.73
2023-04-19T11:44:15.342Z,0.47
2023-04-19T11:46:43.084Z,0.60
2023-04-19T11:49:09.760Z,0.60
2023-04-19T11:51:41.806Z,0.70
2023-04-19T11:54:16.945Z,1.13
2023-04-19T11:57:10.179Z,0.82
2023-04-19T11:59:37.032Z,0.70
2023-04-19T12:02:12.228Z,0.52
2023-04-19T12:04:39.957Z,0.63
2023-04-19T12:07:07.391Z,0.60
2023-04-19T12:09:35.913Z,0.60
2023-04-19T12:12:03.127Z,0.80
2023-04-19T12:14:30.599Z,0.55
2023-04-19T12:17:23.906Z,0.88
2023-04-19T12:20:41.255Z,0.73
2023-04-19T12:23:11.282Z,0.60
2023-04-19T12:25:38.082Z,0.50
2023-04-19T12:28:05.182Z,0.63
2023-04-19T12:30:32.285Z,0.47
2023-04-19T12:32:59.471Z,0.70
2023-04-19T12:35:29.711Z,0.47
2023-04-19T12:37:58.464Z,0.55
2023-04-19T12:40:26.500Z,0.50
2023-04-19T12:42:54.089Z,0.35
2023-04-19T12:45:21.384Z,0.70
2023-04-19T12:47:49.209Z,0.70
2023-04-19T12:50:16.530Z,0.70
2023-04-19T12:52:44.631Z,0.90
2023-04-19T12:55:11.836Z,0.43
2023-04-19T12:57:39.010Z,0.60
2023-04-19T13:00:07.370Z,0.68
2023-04-19T13:02:35.174Z,0.70
2023-04-19T13:05:02.559Z,0.80
2023-04-19T13:07:29.325Z,0.70
2023-04-19T13:09:56.831Z,0.60
2023-04-19T13:12:24.112Z,0.50
2023-04-19T13:14:52.392Z,0.63
2023-04-19T13:17:20.005Z,0.60
2023-04-19T13:19:47.440Z,0.68
2023-04-19T13:22:14.263Z,0.73
2023-04-19T13:24:41.150Z,0.80
2023-04-19T13:27:09.043Z,0.70
2023-04-19T13:29:36.162Z,1.27
2023-04-19T13:32:03.077Z,0.70
2023-04-19T13:34:29.746Z,0.82
2023-04-19T13:36:57.667Z,0.77
2023-04-19T13:39:24.488Z,1.15
2023-04-19T13:41:51.714Z,0.90
2023-04-19T13:44:18.910Z,1.00
2023-04-19T13:46:47.113Z,1.02
2023-04-19T13:49:13.836Z,1.00
2023-04-19T13:51:49.549Z,0.70
2023-04-19T13:54:18.236Z,0.88
2023-04-19T13:56:45.677Z,0.90
2023-04-19T13:59:12.727Z,0.85
2023-04-19T14:01:39.583Z,0.65
2023-04-19T14:04:06.659Z,1.15
2023-04-19T14:06:33.676Z,1.15
2023-04-19T14:09:00.640Z,0.88
2023-04-19T14:11:27.534Z,0.93
2023-04-19T14:13:54.327Z,1.05
2023-04-19T14:16:24.363Z,1.17
2023-04-19T14:18:52.242Z,0.93
2023-04-19T14:21:19.272Z,1.20
2023-04-19T14:23:46.024Z,0.75
2023-04-19T14:26:12.759Z,0.70
2023-04-19T14:28:39.587Z,1.00
2023-04-19T14:31:06.650Z,1.10
2023-04-19T14:33:33.468Z,1.23
2023-04-19T14:36:01.107Z,0.75
2023-04-19T14:38:28.043Z,0.88
2023-04-19T14:41:16.724Z,0.70
2023-04-19T14:43:43.734Z,0.93
2023-04-19T14:46:10.657Z,0.85
2023-04-19T14:48:37.520Z,1.30
2023-04-19T14:51:04.331Z,1.25
2023-04-19T14:53:33.475Z,0.95
2023-04-19T14:56:04.067Z,1.30
2023-04-19T14:58:31.078Z,0.90
2023-04-19T15:00:58.976Z,0.90
2023-04-19T15:03:26.215Z,1.23
2023-04-19T15:05:53.386Z,0.90
2023-04-19T15:08:30.217Z,0.70
2023-04-19T15:10:57.880Z,0.50
2023-04-19T15:13:24.782Z,1.00
2023-04-19T15:15:51.490Z,0.90
2023-04-19T15:18:18.302Z,0.88
2023-04-19T15:20:45.042Z,0.85
2023-04-19T15:23:17.981Z,0.70
2023-04-19T15:25:44.813Z,0.97
2023-04-19T15:28:11.597Z,0.98
2023-04-19T15:30:38.297Z,1.27
2023-04-19T15:33:05.519Z,0.82
2023-04-19T15:35:32.266Z,1.05
2023-04-19T15:37:58.919Z,1.08
2023-04-19T15:40:25.761Z,1.33
2023-04-19T15:42:52.522Z,1.10
2023-04-19T15:45:19.320Z,1.20
2023-04-19T15:47:46.067Z,0.98
2023-04-19T15:54:38.666Z,1.00
2023-04-19T15:57:05.404Z,1.30
2023-04-19T15:59:32.009Z,1.23
2023-04-19T16:01:59.033Z,1.33
2023-04-19T16:04:26.174Z,0.85
2023-04-19T16:06:53.211Z,1.00
2023-04-19T16:09:20.485Z,1.23
2023-04-19T16:11:47.136Z,0.98
2023-04-19T16:14:13.917Z,1.10
2023-04-19T16:16:40.783Z,1.00
2023-04-19T16:19:07.514Z,1.27
2023-04-19T16:21:34.250Z,1.02
2023-04-19T16:24:00.981Z,1.45
2023-04-19T16:26:28.275Z,1.10
2023-04-19T16:28:54.980Z,1.42
2023-04-19T16:31:21.858Z,1.10
2023-04-19T16:33:48.597Z,1.42
2023-04-19T16:36:15.495Z,1.00
2023-04-19T16:38:42.473Z,1.10
2023-04-19T16:41:09.211Z,1.30
2023-04-19T16:43:36.932Z,1.13
2023-04-19T16:46:04.108Z,1.48
2023-04-19T16:48:30.945Z,1.17
2023-04-19T16:50:57.896Z,2.67
2023-04-19T16:53:24.541Z,1.58
2023-04-19T16:55:51.313Z,2.15
2023-04-19T16:58:17.999Z,1.45
2023-04-19T17:00:44.749Z,0.93
2023-04-19T17:03:11.880Z,1.02
2023-04-19T17:05:38.757Z,1.20
2023-04-19T17:08:05.845Z,0.90
2023-04-19T17:10:32.592Z,1.02
2023-04-19T17:12:59.254Z,1.25
2023-04-19T17:15:26.102Z,1.52
2023-04-19T17:17:52.828Z,1.00
2023-04-19T17:20:19.694Z,0.90
2023-04-19T17:22:46.532Z,1.80
2023-04-19T17:25:13.362Z,0.98
2023-04-19T17:27:40.263Z,0.90
2023-04-19T17:30:07.839Z,1.30
2023-04-19T17:32:34.842Z,1.40
2023-04-19T17:35:01.486Z,0.88
2023-04-19T17:37:28.395Z,1.10
2023-04-19T17:39:55.404Z,1.52
2023-04-19T17:42:23.802Z,0.95
2023-04-19T17:44:50.548Z,0.75
2023-04-19T17:47:19.211Z,1.25
2023-04-19T17:49:46.386Z,1.30
2023-04-19T17:52:13.539Z,1.08
2023-04-19T17:54:40.270Z,1.27
2023-04-19T17:57:07.018Z,0.80
2023-04-19T17:59:33.680Z,0.77
2023-04-19T18:02:00.536Z,1.35
2023-04-19T18:04:27.418Z,0.98
2023-04-19T18:06:54.153Z,0.90
2023-04-19T18:09:20.808Z,1.02
2023-04-19T18:11:47.868Z,0.70
2023-04-19T18:14:15.385Z,0.75
2023-04-19T18:16:42.269Z,1.38
2023-04-19T18:19:08.993Z,1.17
2023-04-19T18:21:35.689Z,1.00
2023-04-19T18:24:02.329Z,1.30
2023-04-19T18:26:42.539Z,1.30
2023-04-19T18:29:09.843Z,1.42
2023-04-19T18:31:36.569Z,1.23
2023-04-19T18:34:03.417Z,1.02
2023-04-19T18:36:30.148Z,2.47
2023-04-19T18:38:56.835Z,1.90
2023-04-19T18:41:24.012Z,1.42
2023-04-19T18:44:13.654Z,1.35
2023-04-19T18:46:37.491Z,1.38
2023-04-19T18:49:04.169Z,2.30
2023-04-19T18:51:31.367Z,2.50
2023-04-19T18:53:57.968Z,1.42
2023-04-19T18:56:54.248Z,2.60
2023-04-19T18:59:11.536Z,1.30
2023-04-19T19:01:38.599Z,1.38
2023-04-19T19:06:35.108Z,1.40
2023-04-19T19:09:01.856Z,1.50
2023-04-19T19:11:52.006Z,1.20
2023-04-19T19:14:15.368Z,1.73
2023-04-19T19:16:51.508Z,1.42
2023-04-19T19:19:20.698Z,1.17
2023-04-19T19:21:47.503Z,1.05
2023-04-19T19:24:14.130Z,1.25
2023-04-19T19:26:40.750Z,1.45
2023-04-19T19:29:09.202Z,1.48
2023-04-19T19:31:36.712Z,1.30
2023-04-19T19:34:22.567Z,1.25
2023-04-19T19:36:51.090Z,1.17
2023-04-19T19:39:18.002Z,1.05
2023-04-19T19:44:14.956Z,1.05
2023-04-19T19:46:41.683Z,1.10
2023-04-19T19:52:29.145Z,1.45
2023-04-19T19:54:56.250Z,1.23
2023-04-19T19:59:56.367Z,1.45
2023-04-19T20:02:24.591Z,1.20
2023-04-19T20:04:51.795Z,1.48
2023-04-19T20:07:37.239Z,1.13
2023-04-19T20:10:12.171Z,1.30
2023-04-19T20:12:42.206Z,1.50
2023-04-19T20:15:11.710Z,1.60
2023-04-19T20:17:40.502Z,1.13
2023-04-19T20:20:11.640Z,0.82
2023-04-19T20:22:38.574Z,1.38
2023-04-19T20:25:05.923Z,1.40
2023-04-19T20:27:33.479Z,1.20
2023-04-19T20:30:01.032Z,1.30
2023-04-19T20:32:27.869Z,1.35
2023-04-19T20:34:54.585Z,1.33
2023-04-19T20:37:23.612Z,1.52
2023-04-19T20:39:50.611Z,1.35
2023-04-19T20:42:17.702Z,1.23
2023-04-19T20:44:44.637Z,1.77
2023-04-19T20:47:13.374Z,1.05
2023-04-19T20:49:41.337Z,1.20
2023-04-19T20:52:08.354Z,1.90
2023-04-19T20:54:36.584Z,1.65
2023-04-19T20:57:04.732Z,1.20
2023-04-19T20:59:34.306Z,1.52
2023-04-19T21:02:01.041Z,1.30
2023-04-19T21:04:28.027Z,1.65
2023-04-19T21:06:54.737Z,1.70
2023-04-19T21:09:21.411Z,1.58
2023-04-19T21:11:48.325Z,1.60
2023-04-19T21:14:15.029Z,1.85
2023-04-19T21:16:41.756Z,1.75
2023-04-19T21:19:08.690Z,1.60
2023-04-19T21:21:35.526Z,1.50
2023-04-19T21:24:02.417Z,1.30
2023-04-19T21:26:29.101Z,1.45
2023-04-19T21:28:55.853Z,1.83
2023-04-19T21:31:22.586Z,1.92
2023-04-19T21:33:49.539Z,1.73
2023-04-19T21:36:16.297Z,1.38
2023-04-19T21:38:43.067Z,1.30
2023-04-19T21:41:10.859Z,1.35
2023-04-19T21:43:37.689Z,1.25
2023-04-19T21:46:05.312Z,2.00
2023-04-19T21:48:32.208Z,1.80
2023-04-19T21:50:59.963Z,1.42
2023-04-19T21:53:26.685Z,1.63
2023-04-19T21:55:53.385Z,1.65
2023-04-19T21:58:20.055Z,1.17
2023-04-19T22:00:47.724Z,1.70
2023-04-19T22:03:14.836Z,1.42
2023-04-19T22:05:41.636Z,1.40
2023-04-19T22:08:08.272Z,1.40
2023-04-19T22:10:35.061Z,1.67
2023-04-19T22:13:03.463Z,1.48
2023-04-19T22:15:30.663Z,1.58
2023-04-19T22:17:58.315Z,1.65
2023-04-19T22:20:27.767Z,1.50
2023-04-19T22:22:55.957Z,1.27
2023-04-19T22:25:22.679Z,1.50
2023-04-19T22:27:49.301Z,1.40
2023-04-19T22:30:16.309Z,1.73
2023-04-19T22:32:43.079Z,2.00
2023-04-19T22:35:09.824Z,1.73
2023-04-19T22:37:36.592Z,1.67
2023-04-19T22:40:05.850Z,1.77
2023-04-19T22:42:32.576Z,1.85
2023-04-19T22:44:59.220Z,1.60
2023-04-19T22:47:26.320Z,1.98
2023-04-19T22:49:54.201Z,2.15
2023-04-19T22:52:20.998Z,1.67
2023-04-19T22:54:47.617Z,1.42
2023-04-19T22:57:14.467Z,1.52
2023-04-19T22:59:41.118Z,1.58
2023-04-19T23:02:08.061Z,1.73
2023-04-19T23:04:35.425Z,1.73
2023-04-19T23:07:03.307Z,1.75
2023-04-19T23:09:30.027Z,1.35
2023-04-19T23:11:58.594Z,1.40
2023-04-19T23:14:25.315Z,1.70
2023-04-19T23:16:54.754Z,1.40
2023-04-19T23:19:22.791Z,1.90
2023-04-19T23:21:52.545Z,2.05
2023-04-19T23:24:19.453Z,1.33
2023-04-19T23:26:46.136Z,1.80
2023-04-19T23:29:12.727Z,1.58
2023-04-19T23:31:39.511Z,1.80
2023-04-19T23:34:06.161Z,2.15
2023-04-19T23:36:32.775Z,1.67
2023-04-19T23:38:59.404Z,1.95
2023-04-19T23:41:26.121Z,2.38
2023-04-19T23:43:52.753Z,2.13
2023-04-19T23:46:19.483Z,1.95
2023-04-19T23:48:46.524Z,1.98
2023-04-19T23:51:13.373Z,1.58
2023-04-19T23:53:40.464Z,2.05
2023-04-19T23:56:07.571Z,1.85
2023-04-19T23:58:34.270Z,1.60
